Eastside, Florida
Current Conditions -  °F | °C
As of 12:58 PM on Tuesday 21 Oct 2014 (Local Time) from KPAM Reporting Station
Clear Clear  
Wind Chill: 79°   Ceiling: Unl
Heat Index: 80°   Visibility: 10mi
Dew Point: 57°   Wind: 2mph
Humidity: 47%   Direction: NA
Pressure: 29.99"   Gusts: NA
Location:  30.1957°N, 85.4833°W
Report Text: KPAM 211758Z AUTO VRB02KT 10SM CLR 26/14 A2999 RMK AO2 SLP159 T02610141 10261 20159 58013 $
Loading
Personal Weather Stations






























Interactive Weather Map
Tropical Storm Tracking
New forecast layout! Learn more

10-Day Weather Forecast

Advertisements
Track Severe Weather on mobile